This is the latest recevied weather packets stored in our database for station/object KD2RHT-13. If no packets are shown the sender has not sent any weather packets the latest 1 day(s).
| Time | Temp. | Humidity | Pressure | Rain* | Wind** | Luminosity | Snow |
|---|---|---|---|---|---|---|---|
| 1778010805 | 23.33° C | 67% | 1006.3 hPa | 0 mm | 0.89 m/s, 198° | 530 W/m² | - |
| 1778010502 | 23.33° C | 67% | 1006.3 hPa | 0 mm | 0.89 m/s, 147° | 321 W/m² | - |
| 1778010199 | 22.78° C | 67% | 1006.3 hPa | 0 mm | 1.34 m/s, 203° | 580 W/m² | - |
| 1778009894 | 22.78° C | 69% | 1006.3 hPa | 0 mm | 0 m/s | 211 W/m² | - |
| 1778009592 | 22.78° C | 69% | 1006.7 hPa | 0 mm | 0.45 m/s, 219° | 283 W/m² | - |
| 1778009290 | 22.78° C | 68% | 1006 hPa | 0 mm | 1.34 m/s, 213° | 594 W/m² | - |
| 1778008988 | 22.22° C | 70% | 1006.7 hPa | 0 mm | 0.89 m/s, 182° | 593 W/m² | - |
| 1778008685 | 22.22° C | 69% | 1006.7 hPa | 0 mm | 2.24 m/s, 222° | 632 W/m² | - |
| 1778008384 | 21.67° C | 70% | 1006.3 hPa | 0 mm | 3.13 m/s, 192° | 603 W/m² | - |
| 1778008080 | 21.67° C | 71% | 1006.3 hPa | 0 mm | 1.79 m/s, 153° | 608 W/m² | - |
| 1778007775 | 21.67° C | 71% | 1006.3 hPa | 0 mm | 2.68 m/s, 215° | 655 W/m² | - |
| 1778007472 | 21.11° C | 75% | 1006.7 hPa | 0 mm | 0.45 m/s, 183° | 621 W/m² | - |
| 1778007168 | 20.56° C | 77% | 1006.7 hPa | 0 mm | 1.34 m/s, 151° | 645 W/m² | - |
| 1778006864 | 20° C | 79% | 1006.3 hPa | 0 mm | 1.34 m/s, 206° | 255 W/m² | - |
| 1778006562 | 18.33° C | 81% | 1006.7 hPa | 1.27 mm | 2.68 m/s, 140° | 514 W/m² | - |
| 1778006258 | 18.89° C | 82% | 1006.7 hPa | 1.27 mm | 1.34 m/s, 206° | 163 W/m² | - |
| 1778005956 | 18.89° C | 79% | 1007 hPa | 0 mm | 1.34 m/s, 210° | 97 W/m² | - |
| 1778005652 | 19.44° C | 79% | 1007 hPa | 0 mm | 1.34 m/s, 221° | 203 W/m² | - |
| 1778005349 | 19.44° C | 77% | 1007 hPa | 0 mm | 1.34 m/s, 191° | 163 W/m² | - |
| 1778005045 | 19.44° C | 79% | 1007 hPa | 0 mm | 1.34 m/s, 196° | 124 W/m² | - |
| 1778004743 | 19.44° C | 79% | 1007 hPa | 0 mm | 0 m/s | 148 W/m² | - |
| 1778004439 | 19.44° C | 77% | 1006.7 hPa | 0 mm | 1.34 m/s, 253° | 109 W/m² | - |
| 1778004136 | 20° C | 76% | 1006.7 hPa | 0 mm | 2.24 m/s, 183° | 102 W/m² | - |
| 1778003832 | 20.56° C | 72% | 1006.3 hPa | 0 mm | 0.45 m/s, 170° | 106 W/m² | - |
| 1778003529 | 21.11° C | 69% | 1006 hPa | 0 mm | 0.45 m/s, 204° | 44 W/m² | - |
* Rain latest hour (hover to see other rain measurements)
** Current wind speed in m/s (hover to see current wind gust speed)